sensor_id;sensor_type;location;lat;lon;timestamp;P1;durP1;ratioP1;P2;durP2;ratioP2
9904;SDS011;4991;43.566;27.820;2023-06-14T00:00:13;4.20;;;3.80;;
9904;SDS011;4991;43.566;27.820;2023-06-14T00:02:40;3.57;;;3.27;;
9904;SDS011;4991;43.566;27.820;2023-06-14T00:05:05;3.80;;;3.40;;
9904;SDS011;4991;43.566;27.820;2023-06-14T00:07:41;5.13;;;3.63;;
9904;SDS011;4991;43.566;27.820;2023-06-14T00:10:13;4.03;;;3.53;;
9904;SDS011;4991;43.566;27.820;2023-06-14T00:12:39;4.20;;;3.73;;
9904;SDS011;4991;43.566;27.820;2023-06-14T00:15:05;4.17;;;3.60;;
9904;SDS011;4991;43.566;27.820;2023-06-14T00:17:31;7.70;;;4.03;;
9904;SDS011;4991;43.566;27.820;2023-06-14T00:19:57;5.70;;;4.20;;
9904;SDS011;4991;43.566;27.820;2023-06-14T00:22:23;5.80;;;3.83;;
9904;SDS011;4991;43.566;27.820;2023-06-14T00:24:53;4.80;;;4.23;;
9904;SDS011;4991;43.566;27.820;2023-06-14T00:27:19;5.17;;;4.67;;
9904;SDS011;4991;43.566;27.820;2023-06-14T00:29:45;5.33;;;4.80;;
9904;SDS011;4991;43.566;27.820;2023-06-14T00:32:10;5.63;;;4.80;;
9904;SDS011;4991;43.566;27.820;2023-06-14T00:34:36;4.97;;;3.93;;
9904;SDS011;4991;43.566;27.820;2023-06-14T00:37:02;6.40;;;4.67;;
9904;SDS011;4991;43.566;27.820;2023-06-14T00:39:27;5.37;;;4.40;;
9904;SDS011;4991;43.566;27.820;2023-06-14T00:41:53;6.23;;;4.97;;
9904;SDS011;4991;43.566;27.820;2023-06-14T00:44:18;8.47;;;5.03;;
9904;SDS011;4991;43.566;27.820;2023-06-14T00:46:47;5.70;;;5.17;;
9904;SDS011;4991;43.566;27.820;2023-06-14T00:49:14;5.93;;;4.80;;
9904;SDS011;4991;43.566;27.820;2023-06-14T00:51:41;5.47;;;4.77;;
9904;SDS011;4991;43.566;27.820;2023-06-14T00:54:07;5.43;;;4.93;;
9904;SDS011;4991;43.566;27.820;2023-06-14T00:56:35;6.83;;;5.13;;
9904;SDS011;4991;43.566;27.820;2023-06-14T00:59:02;6.27;;;5.37;;
9904;SDS011;4991;43.566;27.820;2023-06-14T01:01:29;9.67;;;5.10;;
9904;SDS011;4991;43.566;27.820;2023-06-14T01:03:58;5.80;;;5.23;;
9904;SDS011;4991;43.566;27.820;2023-06-14T01:09:41;5.83;;;5.00;;
9904;SDS011;4991;43.566;27.820;2023-06-14T01:12:15;5.90;;;5.30;;
9904;SDS011;4991;43.566;27.820;2023-06-14T01:14:44;6.47;;;5.60;;
9904;SDS011;4991;43.566;27.820;2023-06-14T01:17:13;8.87;;;5.70;;
9904;SDS011;4991;43.566;27.820;2023-06-14T01:19:42;7.07;;;6.03;;
9904;SDS011;4991;43.566;27.820;2023-06-14T01:22:09;6.50;;;5.80;;
9904;SDS011;4991;43.566;27.820;2023-06-14T01:24:35;6.80;;;6.10;;
9904;SDS011;4991;43.566;27.820;2023-06-14T01:27:01;6.67;;;6.00;;
9904;SDS011;4991;43.566;27.820;2023-06-14T01:29:27;7.07;;;6.37;;
9904;SDS011;4991;43.566;27.820;2023-06-14T01:31:57;7.20;;;6.47;;
9904;SDS011;4991;43.566;27.820;2023-06-14T01:34:24;7.43;;;6.53;;
9904;SDS011;4991;43.566;27.820;2023-06-14T01:36:50;9.20;;;6.93;;
9904;SDS011;4991;43.566;27.820;2023-06-14T01:39:20;8.10;;;6.97;;
9904;SDS011;4991;43.566;27.820;2023-06-14T01:41:47;10.87;;;6.50;;
9904;SDS011;4991;43.566;27.820;2023-06-14T01:44:16;10.97;;;7.57;;
9904;SDS011;4991;43.566;27.820;2023-06-14T01:46:43;8.03;;;7.23;;
9904;SDS011;4991;43.566;27.820;2023-06-14T01:49:10;13.30;;;7.67;;
9904;SDS011;4991;43.566;27.820;2023-06-14T01:51:35;9.57;;;7.50;;
9904;SDS011;4991;43.566;27.820;2023-06-14T01:54:01;9.40;;;7.60;;
9904;SDS011;4991;43.566;27.820;2023-06-14T01:56:27;10.20;;;8.47;;
9904;SDS011;4991;43.566;27.820;2023-06-14T01:58:52;9.27;;;8.10;;
9904;SDS011;4991;43.566;27.820;2023-06-14T02:01:19;10.00;;;8.47;;
9904;SDS011;4991;43.566;27.820;2023-06-14T02:03:46;12.40;;;8.87;;
9904;SDS011;4991;43.566;27.820;2023-06-14T02:06:13;10.50;;;8.30;;
9904;SDS011;4991;43.566;27.820;2023-06-14T02:08:41;13.40;;;9.77;;
9904;SDS011;4991;43.566;27.820;2023-06-14T02:11:08;9.70;;;8.70;;
9904;SDS011;4991;43.566;27.820;2023-06-14T02:13:33;12.63;;;9.37;;
9904;SDS011;4991;43.566;27.820;2023-06-14T02:16:00;11.10;;;9.43;;
9904;SDS011;4991;43.566;27.820;2023-06-14T02:18:26;11.30;;;9.33;;
9904;SDS011;4991;43.566;27.820;2023-06-14T02:20:52;11.40;;;9.40;;
9904;SDS011;4991;43.566;27.820;2023-06-14T02:23:18;12.67;;;9.67;;
9904;SDS011;4991;43.566;27.820;2023-06-14T02:25:44;14.67;;;9.80;;
9904;SDS011;4991;43.566;27.820;2023-06-14T02:28:11;15.23;;;10.07;;
9904;SDS011;4991;43.566;27.820;2023-06-14T02:30:37;13.40;;;9.77;;
9904;SDS011;4991;43.566;27.820;2023-06-14T02:33:02;12.47;;;10.40;;
9904;SDS011;4991;43.566;27.820;2023-06-14T02:35:29;15.80;;;10.67;;
9904;SDS011;4991;43.566;27.820;2023-06-14T02:37:55;13.73;;;9.80;;
9904;SDS011;4991;43.566;27.820;2023-06-14T02:40:21;14.63;;;9.83;;
9904;SDS011;4991;43.566;27.820;2023-06-14T02:42:47;12.87;;;10.67;;
9904;SDS011;4991;43.566;27.820;2023-06-14T02:45:13;12.43;;;10.13;;
9904;SDS011;4991;43.566;27.820;2023-06-14T02:47:40;15.30;;;11.13;;
9904;SDS011;4991;43.566;27.820;2023-06-14T02:50:06;12.80;;;11.07;;
9904;SDS011;4991;43.566;27.820;2023-06-14T02:52:35;11.83;;;10.63;;
9904;SDS011;4991;43.566;27.820;2023-06-14T02:55:00;11.80;;;10.40;;
9904;SDS011;4991;43.566;27.820;2023-06-14T02:57:26;12.83;;;11.20;;
9904;SDS011;4991;43.566;27.820;2023-06-14T02:59:51;13.93;;;10.77;;
9904;SDS011;4991;43.566;27.820;2023-06-14T03:02:17;16.13;;;13.33;;
9904;SDS011;4991;43.566;27.820;2023-06-14T03:04:43;12.97;;;11.07;;
9904;SDS011;4991;43.566;27.820;2023-06-14T03:07:10;13.87;;;10.97;;
9904;SDS011;4991;43.566;27.820;2023-06-14T03:09:36;13.90;;;11.77;;
9904;SDS011;4991;43.566;27.820;2023-06-14T03:12:03;13.80;;;11.23;;
9904;SDS011;4991;43.566;27.820;2023-06-14T03:14:29;12.77;;;10.47;;
9904;SDS011;4991;43.566;27.820;2023-06-14T03:16:56;14.30;;;11.60;;
9904;SDS011;4991;43.566;27.820;2023-06-14T03:19:22;14.83;;;11.37;;
9904;SDS011;4991;43.566;27.820;2023-06-14T03:21:48;12.13;;;10.50;;
9904;SDS011;4991;43.566;27.820;2023-06-14T03:24:14;17.60;;;11.83;;
9904;SDS011;4991;43.566;27.820;2023-06-14T03:26:41;17.23;;;10.73;;
9904;SDS011;4991;43.566;27.820;2023-06-14T03:29:07;15.20;;;11.50;;
9904;SDS011;4991;43.566;27.820;2023-06-14T03:31:34;14.63;;;11.17;;
9904;SDS011;4991;43.566;27.820;2023-06-14T03:34:00;13.67;;;10.20;;
9904;SDS011;4991;43.566;27.820;2023-06-14T03:36:26;14.40;;;11.07;;
9904;SDS011;4991;43.566;27.820;2023-06-14T03:38:53;17.03;;;10.27;;
9904;SDS011;4991;43.566;27.820;2023-06-14T03:41:20;13.33;;;10.60;;
9904;SDS011;4991;43.566;27.820;2023-06-14T03:43:46;13.40;;;10.83;;
9904;SDS011;4991;43.566;27.820;2023-06-14T03:46:12;13.93;;;10.20;;
9904;SDS011;4991;43.566;27.820;2023-06-14T03:48:37;12.07;;;9.87;;
9904;SDS011;4991;43.566;27.820;2023-06-14T03:51:04;14.87;;;10.97;;
9904;SDS011;4991;43.566;27.820;2023-06-14T03:53:30;12.60;;;10.77;;
9904;SDS011;4991;43.566;27.820;2023-06-14T03:55:56;11.20;;;9.10;;
9904;SDS011;4991;43.566;27.820;2023-06-14T03:58:22;13.13;;;9.30;;
9904;SDS011;4991;43.566;27.820;2023-06-14T04:00:48;11.67;;;10.07;;
9904;SDS011;4991;43.566;27.820;2023-06-14T04:03:14;10.70;;;9.33;;
9904;SDS011;4991;43.566;27.820;2023-06-14T04:05:40;13.67;;;9.17;;
9904;SDS011;4991;43.566;27.820;2023-06-14T04:08:14;11.77;;;10.30;;
9904;SDS011;4991;43.566;27.820;2023-06-14T04:10:40;12.97;;;10.03;;
9904;SDS011;4991;43.566;27.820;2023-06-14T04:13:05;12.33;;;9.70;;
9904;SDS011;4991;43.566;27.820;2023-06-14T04:15:32;12.47;;;9.87;;
9904;SDS011;4991;43.566;27.820;2023-06-14T04:17:58;10.80;;;9.50;;
9904;SDS011;4991;43.566;27.820;2023-06-14T04:20:24;12.03;;;9.47;;
9904;SDS011;4991;43.566;27.820;2023-06-14T04:22:50;11.50;;;9.57;;
9904;SDS011;4991;43.566;27.820;2023-06-14T04:25:16;12.00;;;10.07;;
9904;SDS011;4991;43.566;27.820;2023-06-14T04:27:42;10.87;;;9.77;;
9904;SDS011;4991;43.566;27.820;2023-06-14T04:30:09;11.27;;;9.30;;
9904;SDS011;4991;43.566;27.820;2023-06-14T04:32:35;10.17;;;9.07;;
9904;SDS011;4991;43.566;27.820;2023-06-14T04:35:04;11.43;;;8.57;;
9904;SDS011;4991;43.566;27.820;2023-06-14T04:37:32;11.10;;;9.87;;
9904;SDS011;4991;43.566;27.820;2023-06-14T04:39:58;15.03;;;10.30;;
9904;SDS011;4991;43.566;27.820;2023-06-14T04:42:24;11.27;;;8.97;;
9904;SDS011;4991;43.566;27.820;2023-06-14T04:44:56;11.20;;;9.77;;
9904;SDS011;4991;43.566;27.820;2023-06-14T04:47:21;12.43;;;9.80;;
9904;SDS011;4991;43.566;27.820;2023-06-14T04:49:47;11.80;;;9.60;;
9904;SDS011;4991;43.566;27.820;2023-06-14T04:52:12;12.03;;;8.97;;
9904;SDS011;4991;43.566;27.820;2023-06-14T04:54:39;11.20;;;8.63;;
9904;SDS011;4991;43.566;27.820;2023-06-14T04:57:09;10.87;;;9.07;;
9904;SDS011;4991;43.566;27.820;2023-06-14T04:59:39;8.93;;;7.83;;
9904;SDS011;4991;43.566;27.820;2023-06-14T05:02:05;9.17;;;7.93;;
9904;SDS011;4991;43.566;27.820;2023-06-14T05:04:32;10.87;;;8.13;;
9904;SDS011;4991;43.566;27.820;2023-06-14T05:07:00;11.47;;;8.80;;
9904;SDS011;4991;43.566;27.820;2023-06-14T05:09:27;9.40;;;7.93;;
9904;SDS011;4991;43.566;27.820;2023-06-14T05:11:53;8.07;;;7.13;;
9904;SDS011;4991;43.566;27.820;2023-06-14T05:14:18;8.87;;;7.93;;
9904;SDS011;4991;43.566;27.820;2023-06-14T05:16:44;8.97;;;7.73;;
9904;SDS011;4991;43.566;27.820;2023-06-14T05:19:10;10.77;;;8.37;;
9904;SDS011;4991;43.566;27.820;2023-06-14T05:21:36;11.73;;;8.67;;
9904;SDS011;4991;43.566;27.820;2023-06-14T05:24:02;12.10;;;8.00;;
9904;SDS011;4991;43.566;27.820;2023-06-14T05:26:28;12.03;;;7.73;;
9904;SDS011;4991;43.566;27.820;2023-06-14T05:28:57;12.97;;;6.93;;
9904;SDS011;4991;43.566;27.820;2023-06-14T05:31:23;11.37;;;7.17;;
9904;SDS011;4991;43.566;27.820;2023-06-14T05:33:51;8.70;;;7.17;;
9904;SDS011;4991;43.566;27.820;2023-06-14T05:36:16;8.57;;;7.67;;
9904;SDS011;4991;43.566;27.820;2023-06-14T05:38:43;7.60;;;6.90;;
9904;SDS011;4991;43.566;27.820;2023-06-14T05:41:08;8.03;;;7.20;;
9904;SDS011;4991;43.566;27.820;2023-06-14T05:43:34;8.40;;;7.00;;
9904;SDS011;4991;43.566;27.820;2023-06-14T05:46:00;8.20;;;6.30;;
9904;SDS011;4991;43.566;27.820;2023-06-14T05:48:25;9.30;;;6.50;;
9904;SDS011;4991;43.566;27.820;2023-06-14T05:50:51;7.47;;;6.77;;
9904;SDS011;4991;43.566;27.820;2023-06-14T05:53:17;8.03;;;6.60;;
9904;SDS011;4991;43.566;27.820;2023-06-14T05:55:42;7.00;;;6.30;;
9904;SDS011;4991;43.566;27.820;2023-06-14T05:58:08;10.20;;;6.97;;
9904;SDS011;4991;43.566;27.820;2023-06-14T06:00:34;7.80;;;6.40;;
9904;SDS011;4991;43.566;27.820;2023-06-14T06:02:59;9.23;;;6.33;;
9904;SDS011;4991;43.566;27.820;2023-06-14T06:05:26;7.77;;;5.93;;
9904;SDS011;4991;43.566;27.820;2023-06-14T06:07:51;8.50;;;6.03;;
9904;SDS011;4991;43.566;27.820;2023-06-14T06:10:17;7.83;;;6.50;;
9904;SDS011;4991;43.566;27.820;2023-06-14T06:12:43;6.57;;;5.70;;
9904;SDS011;4991;43.566;27.820;2023-06-14T06:15:08;6.73;;;6.03;;
9904;SDS011;4991;43.566;27.820;2023-06-14T06:17:37;6.57;;;5.90;;
9904;SDS011;4991;43.566;27.820;2023-06-14T06:20:04;6.73;;;5.10;;
9904;SDS011;4991;43.566;27.820;2023-06-14T06:22:33;8.10;;;5.53;;
9904;SDS011;4991;43.566;27.820;2023-06-14T06:24:59;6.77;;;6.07;;
9904;SDS011;4991;43.566;27.820;2023-06-14T06:27:25;8.67;;;5.97;;
9904;SDS011;4991;43.566;27.820;2023-06-14T06:29:51;7.57;;;5.60;;
9904;SDS011;4991;43.566;27.820;2023-06-14T06:32:17;8.60;;;5.57;;
9904;SDS011;4991;43.566;27.820;2023-06-14T06:34:44;8.50;;;5.37;;
9904;SDS011;4991;43.566;27.820;2023-06-14T06:37:10;10.17;;;5.23;;
9904;SDS011;4991;43.566;27.820;2023-06-14T06:39:36;7.37;;;4.90;;
9904;SDS011;4991;43.566;27.820;2023-06-14T06:42:01;5.00;;;4.50;;
9904;SDS011;4991;43.566;27.820;2023-06-14T06:44:27;5.97;;;5.30;;
9904;SDS011;4991;43.566;27.820;2023-06-14T06:46:53;6.87;;;5.50;;
9904;SDS011;4991;43.566;27.820;2023-06-14T06:49:18;5.10;;;4.57;;
9904;SDS011;4991;43.566;27.820;2023-06-14T06:51:53;5.63;;;5.03;;
9904;SDS011;4991;43.566;27.820;2023-06-14T06:54:25;5.37;;;4.87;;
9904;SDS011;4991;43.566;27.820;2023-06-14T06:56:50;8.80;;;4.87;;
9904;SDS011;4991;43.566;27.820;2023-06-14T06:59:16;5.87;;;4.43;;
9904;SDS011;4991;43.566;27.820;2023-06-14T07:01:42;5.87;;;4.87;;
9904;SDS011;4991;43.566;27.820;2023-06-14T07:04:07;5.80;;;4.33;;
9904;SDS011;4991;43.566;27.820;2023-06-14T07:06:33;6.67;;;4.60;;
9904;SDS011;4991;43.566;27.820;2023-06-14T07:08:58;6.07;;;4.63;;
9904;SDS011;4991;43.566;27.820;2023-06-14T07:11:27;5.60;;;4.40;;
9904;SDS011;4991;43.566;27.820;2023-06-14T07:13:52;6.60;;;4.50;;
9904;SDS011;4991;43.566;27.820;2023-06-14T07:16:18;4.83;;;4.33;;
9904;SDS011;4991;43.566;27.820;2023-06-14T07:18:44;4.87;;;4.03;;
9904;SDS011;4991;43.566;27.820;2023-06-14T07:21:09;5.03;;;4.53;;
9904;SDS011;4991;43.566;27.820;2023-06-14T07:23:35;8.33;;;5.40;;
9904;SDS011;4991;43.566;27.820;2023-06-14T07:26:01;6.07;;;4.37;;
9904;SDS011;4991;43.566;27.820;2023-06-14T07:28:26;6.37;;;3.67;;
9904;SDS011;4991;43.566;27.820;2023-06-14T07:30:52;6.73;;;4.03;;
9904;SDS011;4991;43.566;27.820;2023-06-14T07:33:18;5.03;;;3.80;;
9904;SDS011;4991;43.566;27.820;2023-06-14T07:35:43;5.20;;;3.80;;
9904;SDS011;4991;43.566;27.820;2023-06-14T07:38:09;4.30;;;3.47;;
9904;SDS011;4991;43.566;27.820;2023-06-14T07:40:34;7.22;;;4.07;;
9904;SDS011;4991;43.566;27.820;2023-06-14T07:43:00;4.25;;;3.65;;
9904;SDS011;4991;43.566;27.820;2023-06-14T07:45:27;4.32;;;3.38;;
9904;SDS011;4991;43.566;27.820;2023-06-14T07:47:53;4.17;;;3.47;;
9904;SDS011;4991;43.566;27.820;2023-06-14T07:50:18;5.57;;;4.00;;
9904;SDS011;4991;43.566;27.820;2023-06-14T07:52:44;6.90;;;3.80;;
9904;SDS011;4991;43.566;27.820;2023-06-14T07:55:10;4.63;;;3.33;;
9904;SDS011;4991;43.566;27.820;2023-06-14T07:57:36;3.92;;;3.45;;
9904;SDS011;4991;43.566;27.820;2023-06-14T08:00:02;5.55;;;3.78;;
9904;SDS011;4991;43.566;27.820;2023-06-14T08:02:31;5.13;;;3.63;;
9904;SDS011;4991;43.566;27.820;2023-06-14T08:04:57;6.10;;;3.65;;
9904;SDS011;4991;43.566;27.820;2023-06-14T08:07:23;4.80;;;3.67;;
9904;SDS011;4991;43.566;27.820;2023-06-14T08:09:50;5.30;;;3.40;;
9904;SDS011;4991;43.566;27.820;2023-06-14T08:12:16;3.53;;;3.17;;
9904;SDS011;4991;43.566;27.820;2023-06-14T08:14:42;4.07;;;3.67;;
9904;SDS011;4991;43.566;27.820;2023-06-14T08:17:07;5.82;;;3.65;;
9904;SDS011;4991;43.566;27.820;2023-06-14T08:19:33;5.97;;;3.22;;
9904;SDS011;4991;43.566;27.820;2023-06-14T08:21:59;4.72;;;3.67;;
9904;SDS011;4991;43.566;27.820;2023-06-14T08:24:25;4.28;;;3.67;;
9904;SDS011;4991;43.566;27.820;2023-06-14T08:26:52;3.60;;;3.30;;
9904;SDS011;4991;43.566;27.820;2023-06-14T08:29:19;4.88;;;3.22;;
9904;SDS011;4991;43.566;27.820;2023-06-14T08:31:45;3.30;;;2.78;;
9904;SDS011;4991;43.566;27.820;2023-06-14T08:34:10;4.88;;;3.05;;
9904;SDS011;4991;43.566;27.820;2023-06-14T08:36:36;3.33;;;3.03;;
9904;SDS011;4991;43.566;27.820;2023-06-14T08:39:02;4.15;;;3.13;;
9904;SDS011;4991;43.566;27.820;2023-06-14T08:41:27;3.42;;;2.92;;
9904;SDS011;4991;43.566;27.820;2023-06-14T08:43:54;3.35;;;3.00;;
9904;SDS011;4991;43.566;27.820;2023-06-14T08:46:21;3.22;;;2.90;;
9904;SDS011;4991;43.566;27.820;2023-06-14T08:48:50;3.10;;;2.63;;
9904;SDS011;4991;43.566;27.820;2023-06-14T08:51:20;6.78;;;3.20;;
9904;SDS011;4991;43.566;27.820;2023-06-14T08:53:54;3.55;;;3.25;;
9904;SDS011;4991;43.566;27.820;2023-06-14T08:56:30;3.10;;;2.80;;
9904;SDS011;4991;43.566;27.820;2023-06-14T08:58:57;4.25;;;3.17;;
9904;SDS011;4991;43.566;27.820;2023-06-14T09:01:28;3.20;;;2.90;;
9904;SDS011;4991;43.566;27.820;2023-06-14T09:03:54;3.33;;;2.97;;
9904;SDS011;4991;43.566;27.820;2023-06-14T09:06:23;3.70;;;2.70;;
9904;SDS011;4991;43.566;27.820;2023-06-14T09:08:50;4.57;;;2.53;;
9904;SDS011;4991;43.566;27.820;2023-06-14T09:11:16;2.95;;;2.63;;
9904;SDS011;4991;43.566;27.820;2023-06-14T09:13:44;3.88;;;2.38;;
9904;SDS011;4991;43.566;27.820;2023-06-14T09:16:11;3.45;;;2.88;;
9904;SDS011;4991;43.566;27.820;2023-06-14T09:18:42;3.20;;;2.40;;
9904;SDS011;4991;43.566;27.820;2023-06-14T09:21:10;4.05;;;2.55;;
9904;SDS011;4991;43.566;27.820;2023-06-14T09:23:37;2.83;;;2.20;;
9904;SDS011;4991;43.566;27.820;2023-06-14T09:26:07;3.35;;;2.50;;
9904;SDS011;4991;43.566;27.820;2023-06-14T09:28:47;4.53;;;3.08;;
9904;SDS011;4991;43.566;27.820;2023-06-14T09:31:14;3.17;;;2.78;;
9904;SDS011;4991;43.566;27.820;2023-06-14T09:33:42;2.80;;;2.60;;
9904;SDS011;4991;43.566;27.820;2023-06-14T09:36:22;3.70;;;2.70;;
9904;SDS011;4991;43.566;27.820;2023-06-14T09:38:55;5.03;;;2.78;;
9904;SDS011;4991;43.566;27.820;2023-06-14T09:44:00;2.83;;;2.58;;
9904;SDS011;4991;43.566;27.820;2023-06-14T09:46:28;3.13;;;2.50;;
9904;SDS011;4991;43.566;27.820;2023-06-14T09:48:57;3.25;;;2.50;;
9904;SDS011;4991;43.566;27.820;2023-06-14T09:51:23;4.00;;;2.65;;
9904;SDS011;4991;43.566;27.820;2023-06-14T09:53:49;3.55;;;2.75;;
9904;SDS011;4991;43.566;27.820;2023-06-14T09:56:17;3.58;;;2.63;;
9904;SDS011;4991;43.566;27.820;2023-06-14T09:58:51;4.10;;;2.72;;
9904;SDS011;4991;43.566;27.820;2023-06-14T10:01:20;3.08;;;2.72;;
9904;SDS011;4991;43.566;27.820;2023-06-14T10:03:48;3.65;;;2.50;;
9904;SDS011;4991;43.566;27.820;2023-06-14T10:06:16;4.82;;;2.33;;
9904;SDS011;4991;43.566;27.820;2023-06-14T10:08:42;4.15;;;2.90;;
9904;SDS011;4991;43.566;27.820;2023-06-14T10:11:11;3.83;;;2.40;;
9904;SDS011;4991;43.566;27.820;2023-06-14T10:13:38;3.03;;;2.72;;
9904;SDS011;4991;43.566;27.820;2023-06-14T10:16:09;4.32;;;2.70;;
9904;SDS011;4991;43.566;27.820;2023-06-14T10:18:42;2.70;;;2.50;;
9904;SDS011;4991;43.566;27.820;2023-06-14T10:23:48;3.42;;;2.38;;
9904;SDS011;4991;43.566;27.820;2023-06-14T10:26:19;2.65;;;2.45;;
9904;SDS011;4991;43.566;27.820;2023-06-14T10:28:57;5.03;;;2.60;;
9904;SDS011;4991;43.566;27.820;2023-06-14T10:31:39;3.67;;;2.28;;
9904;SDS011;4991;43.566;27.820;2023-06-14T10:34:09;4.50;;;2.70;;
9904;SDS011;4991;43.566;27.820;2023-06-14T10:36:37;3.25;;;2.58;;
9904;SDS011;4991;43.566;27.820;2023-06-14T10:41:42;4.90;;;2.70;;
9904;SDS011;4991;43.566;27.820;2023-06-14T10:46:54;2.58;;;2.38;;
9904;SDS011;4991;43.566;27.820;2023-06-14T10:52:16;3.55;;;2.90;;
9904;SDS011;4991;43.566;27.820;2023-06-14T10:57:47;3.92;;;2.72;;
9904;SDS011;4991;43.566;27.820;2023-06-14T11:00:17;3.90;;;2.65;;
9904;SDS011;4991;43.566;27.820;2023-06-14T11:08:18;3.35;;;2.80;;
9904;SDS011;4991;43.566;27.820;2023-06-14T11:11:07;2.88;;;2.60;;
9904;SDS011;4991;43.566;27.820;2023-06-14T11:13:34;4.50;;;3.10;;
9904;SDS011;4991;43.566;27.820;2023-06-14T11:16:03;2.90;;;2.50;;
9904;SDS011;4991;43.566;27.820;2023-06-14T11:18:36;2.97;;;2.67;;
9904;SDS011;4991;43.566;27.820;2023-06-14T11:21:01;3.72;;;2.90;;
9904;SDS011;4991;43.566;27.820;2023-06-14T11:23:27;2.75;;;2.55;;
9904;SDS011;4991;43.566;27.820;2023-06-14T11:25:53;2.67;;;2.47;;
9904;SDS011;4991;43.566;27.820;2023-06-14T11:28:19;2.63;;;2.20;;
9904;SDS011;4991;43.566;27.820;2023-06-14T11:30:46;3.25;;;2.38;;
9904;SDS011;4991;43.566;27.820;2023-06-14T11:33:24;2.45;;;2.28;;
9904;SDS011;4991;43.566;27.820;2023-06-14T11:35:51;3.00;;;2.38;;
9904;SDS011;4991;43.566;27.820;2023-06-14T11:38:17;3.63;;;2.30;;
9904;SDS011;4991;43.566;27.820;2023-06-14T11:40:43;2.72;;;2.53;;
9904;SDS011;4991;43.566;27.820;2023-06-14T11:43:09;6.90;;;3.50;;
9904;SDS011;4991;43.566;27.820;2023-06-14T11:45:35;3.67;;;2.60;;
9904;SDS011;4991;43.566;27.820;2023-06-14T11:48:00;3.15;;;2.53;;
9904;SDS011;4991;43.566;27.820;2023-06-14T11:50:27;3.08;;;2.78;;
9904;SDS011;4991;43.566;27.820;2023-06-14T11:52:53;3.40;;;2.45;;
9904;SDS011;4991;43.566;27.820;2023-06-14T11:55:20;3.42;;;2.60;;
9904;SDS011;4991;43.566;27.820;2023-06-14T11:57:47;3.05;;;2.75;;
9904;SDS011;4991;43.566;27.820;2023-06-14T12:00:13;3.15;;;2.53;;
9904;SDS011;4991;43.566;27.820;2023-06-14T12:02:40;3.00;;;2.67;;
9904;SDS011;4991;43.566;27.820;2023-06-14T12:05:07;2.90;;;2.60;;
9904;SDS011;4991;43.566;27.820;2023-06-14T12:07:37;3.17;;;2.88;;
9904;SDS011;4991;43.566;27.820;2023-06-14T12:10:05;2.55;;;2.35;;
9904;SDS011;4991;43.566;27.820;2023-06-14T12:12:34;4.53;;;2.63;;
9904;SDS011;4991;43.566;27.820;2023-06-14T12:15:05;3.95;;;2.65;;
9904;SDS011;4991;43.566;27.820;2023-06-14T12:17:36;3.67;;;2.67;;
9904;SDS011;4991;43.566;27.820;2023-06-14T12:20:07;5.38;;;2.80;;
9904;SDS011;4991;43.566;27.820;2023-06-14T12:22:39;3.47;;;2.70;;
9904;SDS011;4991;43.566;27.820;2023-06-14T12:25:35;6.47;;;2.78;;
9904;SDS011;4991;43.566;27.820;2023-06-14T12:28:05;3.45;;;2.25;;
9904;SDS011;4991;43.566;27.820;2023-06-14T12:30:32;2.70;;;2.50;;
9904;SDS011;4991;43.566;27.820;2023-06-14T12:32:58;2.50;;;2.30;;
9904;SDS011;4991;43.566;27.820;2023-06-14T12:35:24;7.97;;;2.60;;
9904;SDS011;4991;43.566;27.820;2023-06-14T12:37:49;4.03;;;2.75;;
9904;SDS011;4991;43.566;27.820;2023-06-14T12:40:15;2.95;;;2.40;;
9904;SDS011;4991;43.566;27.820;2023-06-14T12:42:41;6.57;;;2.42;;
9904;SDS011;4991;43.566;27.820;2023-06-14T12:45:07;3.75;;;2.83;;
9904;SDS011;4991;43.566;27.820;2023-06-14T12:47:33;2.50;;;2.30;;
9904;SDS011;4991;43.566;27.820;2023-06-14T12:49:58;4.85;;;2.42;;
9904;SDS011;4991;43.566;27.820;2023-06-14T12:52:24;3.00;;;2.75;;
9904;SDS011;4991;43.566;27.820;2023-06-14T12:54:50;2.50;;;2.30;;
9904;SDS011;4991;43.566;27.820;2023-06-14T12:57:15;5.03;;;3.00;;
9904;SDS011;4991;43.566;27.820;2023-06-14T12:59:41;3.45;;;2.65;;
9904;SDS011;4991;43.566;27.820;2023-06-14T13:02:13;3.13;;;2.72;;
9904;SDS011;4991;43.566;27.820;2023-06-14T13:04:39;3.78;;;2.25;;
9904;SDS011;4991;43.566;27.820;2023-06-14T13:07:04;2.70;;;2.50;;
9904;SDS011;4991;43.566;27.820;2023-06-14T13:09:30;3.47;;;2.90;;
9904;SDS011;4991;43.566;27.820;2023-06-14T13:11:56;2.58;;;2.22;;
9904;SDS011;4991;43.566;27.820;2023-06-14T13:14:21;3.25;;;2.15;;
9904;SDS011;4991;43.566;27.820;2023-06-14T13:16:47;2.65;;;2.45;;
9904;SDS011;4991;43.566;27.820;2023-06-14T13:19:13;4.15;;;2.40;;
9904;SDS011;4991;43.566;27.820;2023-06-14T13:21:40;3.33;;;2.53;;
9904;SDS011;4991;43.566;27.820;2023-06-14T13:24:06;3.30;;;2.83;;
9904;SDS011;4991;43.566;27.820;2023-06-14T13:26:32;3.90;;;2.70;;
9904;SDS011;4991;43.566;27.820;2023-06-14T13:28:59;5.18;;;3.50;;
9904;SDS011;4991;43.566;27.820;2023-06-14T13:31:25;5.35;;;2.90;;
9904;SDS011;4991;43.566;27.820;2023-06-14T13:33:50;3.03;;;2.83;;
9904;SDS011;4991;43.566;27.820;2023-06-14T13:36:16;7.65;;;2.95;;
9904;SDS011;4991;43.566;27.820;2023-06-14T13:38:42;2.65;;;2.45;;
9904;SDS011;4991;43.566;27.820;2023-06-14T13:41:07;3.13;;;2.70;;
9904;SDS011;4991;43.566;27.820;2023-06-14T13:43:33;6.88;;;3.20;;
9904;SDS011;4991;43.566;27.820;2023-06-14T13:45:59;3.15;;;2.75;;
9904;SDS011;4991;43.566;27.820;2023-06-14T13:48:25;4.10;;;2.65;;
9904;SDS011;4991;43.566;27.820;2023-06-14T13:50:50;3.03;;;2.72;;
9904;SDS011;4991;43.566;27.820;2023-06-14T13:53:16;4.22;;;2.50;;
9904;SDS011;4991;43.566;27.820;2023-06-14T13:55:42;4.53;;;3.25;;
9904;SDS011;4991;43.566;27.820;2023-06-14T13:58:08;3.65;;;2.65;;
9904;SDS011;4991;43.566;27.820;2023-06-14T14:00:33;3.38;;;3.08;;
9904;SDS011;4991;43.566;27.820;2023-06-14T14:03:00;3.35;;;2.33;;
9904;SDS011;4991;43.566;27.820;2023-06-14T14:05:26;3.53;;;2.80;;
9904;SDS011;4991;43.566;27.820;2023-06-14T14:07:54;3.75;;;2.78;;
9904;SDS011;4991;43.566;27.820;2023-06-14T14:10:22;3.25;;;2.95;;
9904;SDS011;4991;43.566;27.820;2023-06-14T14:12:50;3.88;;;3.00;;
9904;SDS011;4991;43.566;27.820;2023-06-14T14:15:16;3.33;;;3.03;;
9904;SDS011;4991;43.566;27.820;2023-06-14T14:17:42;3.47;;;2.80;;
9904;SDS011;4991;43.566;27.820;2023-06-14T14:20:07;3.28;;;2.80;;
9904;SDS011;4991;43.566;27.820;2023-06-14T14:22:33;3.97;;;2.55;;
9904;SDS011;4991;43.566;27.820;2023-06-14T14:24:59;3.13;;;2.80;;
9904;SDS011;4991;43.566;27.820;2023-06-14T14:27:25;3.70;;;3.28;;
9904;SDS011;4991;43.566;27.820;2023-06-14T14:29:50;3.90;;;3.22;;
9904;SDS011;4991;43.566;27.820;2023-06-14T14:32:16;4.03;;;3.67;;
9904;SDS011;4991;43.566;27.820;2023-06-14T14:34:41;4.53;;;3.92;;
9904;SDS011;4991;43.566;27.820;2023-06-14T14:37:07;5.72;;;4.70;;
9904;SDS011;4991;43.566;27.820;2023-06-14T14:39:33;4.85;;;4.35;;
9904;SDS011;4991;43.566;27.820;2023-06-14T14:41:58;6.40;;;4.60;;
9904;SDS011;4991;43.566;27.820;2023-06-14T14:44:25;4.05;;;3.67;;
9904;SDS011;4991;43.566;27.820;2023-06-14T14:46:50;4.68;;;4.20;;
9904;SDS011;4991;43.566;27.820;2023-06-14T14:49:16;4.45;;;4.05;;
9904;SDS011;4991;43.566;27.820;2023-06-14T14:51:41;5.88;;;4.40;;
9904;SDS011;4991;43.566;27.820;2023-06-14T14:54:07;5.63;;;4.78;;
9904;SDS011;4991;43.566;27.820;2023-06-14T14:56:33;6.10;;;4.78;;
9904;SDS011;4991;43.566;27.820;2023-06-14T14:59:00;5.22;;;4.20;;
9904;SDS011;4991;43.566;27.820;2023-06-14T15:01:26;5.57;;;4.82;;
9904;SDS011;4991;43.566;27.820;2023-06-14T15:03:52;5.07;;;3.90;;
9904;SDS011;4991;43.566;27.820;2023-06-14T15:06:17;5.07;;;4.57;;
9904;SDS011;4991;43.566;27.820;2023-06-14T15:08:43;8.13;;;4.65;;
9904;SDS011;4991;43.566;27.820;2023-06-14T15:11:09;6.10;;;5.50;;
9904;SDS011;4991;43.566;27.820;2023-06-14T15:13:35;7.38;;;5.13;;
9904;SDS011;4991;43.566;27.820;2023-06-14T15:16:00;10.70;;;6.35;;
9904;SDS011;4991;43.566;27.820;2023-06-14T15:18:26;6.40;;;5.10;;
9904;SDS011;4991;43.566;27.820;2023-06-14T15:20:52;5.50;;;4.95;;